Time;durP1;ratioP1;P1;durP2;ratioP2;P2;SDS_P1;SDS_P2;PMS_P1;PMS_P2;Temp;Humidity;BMP_temperature;BMP_pressure;BME280_temperature;BME280_humidity;BME280_pressure;Samples;Min_cycle;Max_cycle;Signal;HPM_P1;HPM_P2
2022/06/26 00:01:25;;;;;;;19.50;8.00;;;17.10;99.90;;;;;;5034096;28;20022;-33
2022/06/26 00:03:51;;;;;;;13.88;7.60;;;17.10;99.90;;;;;;5045761;28;20035;-35
2022/06/26 00:06:16;;;;;;;9.43;7.28;;;17.10;99.90;;;;;;5039668;28;20044;-37
2022/06/26 00:08:42;;;;;;;11.65;7.72;;;17.20;99.90;;;;;;5046655;28;20090;-35
2022/06/26 00:11:07;;;;;;;11.52;8.10;;;17.10;99.90;;;;;;5051208;28;20029;-31
2022/06/26 00:13:33;;;;;;;13.30;7.82;;;17.10;99.90;;;;;;5032822;28;20124;-32
2022/06/26 00:15:59;;;;;;;12.13;7.95;;;17.10;99.90;;;;;;5033448;28;20029;-35
2022/06/26 00:18:24;;;;;;;13.13;7.85;;;17.10;99.90;;;;;;5036780;28;20022;-34
2022/06/26 00:20:50;;;;;;;11.13;7.30;;;17.10;99.90;;;;;;5033806;28;20048;-35
2022/06/26 00:23:16;;;;;;;11.57;8.40;;;17.10;99.90;;;;;;5049365;28;20075;-44
2022/06/26 00:25:41;;;;;;;14.13;9.10;;;17.10;99.90;;;;;;5037461;28;20037;-35
2022/06/26 00:28:07;;;;;;;11.48;7.32;;;17.10;99.90;;;;;;5035708;28;20466;-35
2022/06/26 00:30:32;;;;;;;14.50;8.00;;;17.10;99.90;;;;;;5033633;28;20029;-34
2022/06/26 00:32:58;;;;;;;12.40;9.07;;;17.10;99.90;;;;;;5043471;28;20497;-36
2022/06/26 00:35:24;;;;;;;14.40;8.82;;;17.10;99.90;;;;;;5051649;28;20024;-31
2022/06/26 00:37:49;;;;;;;11.52;8.43;;;17.10;99.90;;;;;;5038640;28;20069;-32
2022/06/26 00:40:15;;;;;;;13.13;8.13;;;17.10;99.90;;;;;;5041633;28;20029;-32
2022/06/26 00:42:41;;;;;;;17.25;8.40;;;17.10;99.90;;;;;;5044562;28;20021;-31
2022/06/26 00:45:07;;;;;;;11.75;8.57;;;17.10;99.90;;;;;;5034327;28;20116;-33
2022/06/26 00:47:32;;;;;;;15.85;8.35;;;17.10;99.90;;;;;;5026352;28;20033;-33
2022/06/26 00:49:58;;;;;;;17.25;9.20;;;17.10;99.90;;;;;;5039523;28;20029;-30
2022/06/26 00:52:24;;;;;;;17.38;9.43;;;17.10;99.90;;;;;;5046133;28;20692;-34
2022/06/26 00:54:51;;;;;;;14.70;9.20;;;17.10;99.90;;;;;;5043058;28;20025;-32
2022/06/26 00:57:18;;;;;;;18.38;9.95;;;17.20;99.90;;;;;;5033063;28;20466;-36
2022/06/26 00:59:44;;;;;;;15.80;10.20;;;17.10;99.90;;;;;;5035888;28;20028;-39
2022/06/26 01:02:09;;;;;;;17.25;10.10;;;17.10;99.90;;;;;;5051880;28;20028;-31
2022/06/26 01:04:35;;;;;;;21.23;10.57;;;17.10;99.90;;;;;;5041354;28;20104;-34
2022/06/26 01:07:01;;;;;;;19.05;10.65;;;17.10;99.90;;;;;;5042701;28;20037;-34
2022/06/26 01:09:27;;;;;;;23.08;11.32;;;17.10;99.90;;;;;;5043654;28;20497;-33
2022/06/26 01:11:53;;;;;;;18.65;10.23;;;17.20;99.90;;;;;;5043307;28;20033;-32
2022/06/26 01:14:20;;;;;;;17.70;10.90;;;17.20;99.90;;;;;;5045989;28;20021;-32
2022/06/26 01:16:46;;;;;;;22.65;11.77;;;17.10;99.90;;;;;;5032517;28;20083;-32
2022/06/26 01:19:15;;;;;;;18.00;12.23;;;17.20;99.90;;;;;;5036060;28;20024;-31
2022/06/26 01:21:40;;;;;;;23.17;14.02;;;17.20;99.90;;;;;;5043803;28;20432;-33
2022/06/26 01:24:06;;;;;;;22.67;13.25;;;17.20;99.90;;;;;;5031973;28;20021;-35
2022/06/26 01:26:33;;;;;;;27.05;14.18;;;17.20;99.90;;;;;;5034341;28;20045;-36
2022/06/26 01:28:58;;;;;;;23.98;14.02;;;17.20;99.90;;;;;;5037338;28;20469;-34
2022/06/26 01:31:24;;;;;;;26.58;13.10;;;17.20;99.90;;;;;;5042003;28;20033;-32
2022/06/26 01:33:50;;;;;;;23.05;14.43;;;17.20;99.90;;;;;;5051167;28;20476;-34
2022/06/26 01:36:16;;;;;;;28.38;13.95;;;17.20;99.90;;;;;;5045782;28;20017;-32
2022/06/26 01:38:42;;;;;;;28.15;14.40;;;17.20;99.90;;;;;;5032517;28;20029;-34
2022/06/26 01:41:08;;;;;;;27.08;13.38;;;17.20;99.90;;;;;;5034309;28;20028;-33
2022/06/26 01:43:36;;;;;;;22.88;13.65;;;17.20;99.90;;;;;;5034135;28;20053;-39
2022/06/26 01:46:03;;;;;;;24.88;14.25;;;17.20;99.90;;;;;;5046915;28;20086;-35
2022/06/26 01:48:31;;;;;;;26.83;14.95;;;17.20;99.90;;;;;;5050379;28;20036;-36
2022/06/26 01:50:58;;;;;;;23.33;12.65;;;17.20;99.90;;;;;;5038849;28;20032;-30
2022/06/26 01:53:25;;;;;;;34.67;13.95;;;17.20;99.90;;;;;;5043048;28;20022;-34
2022/06/26 01:55:51;;;;;;;29.38;12.98;;;17.20;99.90;;;;;;5041911;28;20025;-39
2022/06/26 01:58:17;;;;;;;26.25;13.02;;;17.10;99.90;;;;;;5041332;28;20036;-31
2022/06/26 02:00:45;;;;;;;25.45;14.05;;;17.10;99.90;;;;;;5039134;28;20028;-32
2022/06/26 02:03:12;;;;;;;23.73;13.60;;;17.10;99.90;;;;;;5044043;28;20072;-30
2022/06/26 02:05:38;;;;;;;24.85;13.05;;;17.00;99.90;;;;;;5040851;28;20431;-35
2022/06/26 02:08:04;;;;;;;25.88;13.00;;;17.00;99.90;;;;;;5049836;28;20108;-33
2022/06/26 02:16:01;;;;;;;29.90;12.02;;;17.00;99.90;;;;;;5032342;28;20045;-38
2022/06/26 02:18:27;;;;;;;23.17;11.07;;;17.00;99.90;;;;;;5043452;28;20025;-39
2022/06/26 02:20:54;;;;;;;35.03;13.95;;;16.90;99.90;;;;;;5044959;28;20017;-39
2022/06/26 02:23:20;;;;;;;25.38;12.27;;;16.90;99.90;;;;;;5035747;28;20096;-41
2022/06/26 02:25:46;;;;;;;23.55;13.20;;;16.80;99.90;;;;;;5038660;28;20086;-38
2022/06/26 02:28:11;;;;;;;23.77;12.60;;;16.80;99.90;;;;;;5056178;28;20017;-38
2022/06/26 02:30:38;;;;;;;23.67;11.07;;;16.80;99.90;;;;;;5054276;28;20013;-37
2022/06/26 02:33:04;;;;;;;18.83;11.52;;;16.70;99.90;;;;;;5051833;28;20132;-39
2022/06/26 02:35:30;;;;;;;25.02;11.07;;;16.70;99.90;;;;;;5037931;28;20047;-38
2022/06/26 02:37:57;;;;;;;21.75;11.10;;;16.70;99.90;;;;;;5048618;28;20026;-39
2022/06/26 02:40:24;;;;;;;29.77;11.68;;;16.70;99.90;;;;;;5034235;28;20029;-38
2022/06/26 02:42:50;;;;;;;;;;;16.60;99.90;;;;;;5051743;28;20045;-57
2022/06/26 02:45:16;;;;;;;24.13;10.65;;;16.60;99.90;;;;;;5048823;28;19944;-39
2022/06/26 02:47:41;;;;;;;24.63;11.93;;;16.60;99.90;;;;;;5036455;28;20033;-33
2022/06/26 02:50:09;;;;;;;25.02;11.18;;;16.50;99.90;;;;;;5033460;28;20032;-33
2022/06/26 02:52:35;;;;;;;25.08;10.63;;;16.50;99.90;;;;;;5040001;28;20018;-35
2022/06/26 02:55:01;;;;;;;20.13;10.50;;;16.40;99.90;;;;;;5052047;28;20033;-32
2022/06/26 02:57:27;;;;;;;21.95;10.43;;;16.40;99.90;;;;;;5054397;28;20021;-33
2022/06/26 02:59:53;;;;;;;23.45;10.88;;;16.40;99.90;;;;;;5052811;28;20024;-33
2022/06/26 03:02:19;;;;;;;27.98;10.95;;;16.40;99.90;;;;;;5048905;28;20382;-35
2022/06/26 03:04:45;;;;;;;32.10;11.43;;;16.30;99.90;;;;;;5037647;28;20025;-35
2022/06/26 03:07:10;;;;;;;26.98;12.13;;;16.30;99.90;;;;;;5053481;28;20033;-32
2022/06/26 03:09:36;;;;;;;25.83;11.05;;;16.30;99.90;;;;;;5053449;28;20052;-34
2022/06/26 03:12:02;;;;;;;26.20;9.50;;;16.30;99.90;;;;;;5046516;28;20033;-39
2022/06/26 03:14:28;;;;;;;23.10;10.35;;;16.20;99.90;;;;;;5049217;28;20021;-66
2022/06/26 03:16:54;;;;;;;24.23;9.98;;;16.20;99.90;;;;;;5045426;28;20092;-40
2022/06/26 03:19:20;;;;;;;25.20;9.98;;;16.20;99.90;;;;;;5050106;28;20458;-38
2022/06/26 03:21:46;;;;;;;19.60;10.35;;;16.20;99.90;;;;;;5034302;28;20021;-52
2022/06/26 03:24:11;;;;;;;20.60;9.32;;;16.10;99.90;;;;;;5034891;28;20395;-39
2022/06/26 03:26:38;;;;;;;23.85;9.32;;;16.10;99.90;;;;;;5034828;28;20014;-38
2022/06/26 03:29:11;;;;;;;24.45;9.88;;;16.10;99.90;;;;;;5034434;28;20028;-32
2022/06/26 03:31:37;;;;;;;21.70;9.85;;;16.10;99.90;;;;;;5045382;28;20495;-37
2022/06/26 03:34:03;;;;;;;17.92;9.27;;;16.00;99.90;;;;;;5040496;28;20029;-38
2022/06/26 03:36:29;;;;;;;16.10;8.88;;;16.00;99.90;;;;;;5036037;28;20053;-38
2022/06/26 03:38:55;;;;;;;23.80;9.15;;;16.00;99.90;;;;;;5034663;28;20596;-38
2022/06/26 03:41:21;;;;;;;20.20;8.10;;;15.90;99.90;;;;;;5032622;28;20032;-38
2022/06/26 03:43:47;;;;;;;16.67;8.23;;;15.90;99.90;;;;;;5051278;28;20025;-38
2022/06/26 03:46:13;;;;;;;16.80;8.18;;;15.90;99.90;;;;;;5034709;28;20032;-37
2022/06/26 03:48:39;;;;;;;14.27;7.30;;;15.90;99.90;;;;;;5033784;28;20029;-32
2022/06/26 03:51:05;;;;;;;22.02;7.63;;;15.90;99.90;;;;;;5033594;28;20029;-32
2022/06/26 03:53:31;;;;;;;18.95;8.18;;;15.90;99.90;;;;;;5049075;28;20503;-36
2022/06/26 03:55:57;;;;;;;14.73;7.68;;;15.80;99.90;;;;;;5052867;28;20381;-31
2022/06/26 03:58:23;;;;;;;26.25;8.02;;;15.90;99.90;;;;;;5037999;28;20025;-38
2022/06/26 04:00:49;;;;;;;23.25;8.85;;;15.80;99.90;;;;;;5044700;28;20440;-31
2022/06/26 04:03:15;;;;;;;22.25;8.90;;;15.80;99.90;;;;;;5046582;28;20100;-31
2022/06/26 04:05:41;;;;;;;16.05;8.75;;;15.80;99.90;;;;;;5033233;28;20029;-31
2022/06/26 04:08:07;;;;;;;13.85;8.68;;;15.80;99.90;;;;;;5047099;28;20021;-33
2022/06/26 04:10:34;;;;;;;22.70;9.40;;;15.80;99.90;;;;;;5043234;28;20036;-36
2022/06/26 04:13:01;;;;;;;21.02;8.65;;;15.80;99.90;;;;;;5033864;28;20540;-33
2022/06/26 04:15:28;;;;;;;20.55;10.05;;;15.80;99.90;;;;;;5033253;28;20068;-38
2022/06/26 04:17:54;;;;;;;20.35;9.27;;;15.80;99.90;;;;;;5039047;28;20061;-34
2022/06/26 04:20:20;;;;;;;27.95;10.88;;;15.80;99.90;;;;;;5049887;28;20067;-37
2022/06/26 04:23:04;;;;;;;22.48;9.70;;;15.80;99.90;;;;;;5036277;28;20075;-32
2022/06/26 04:25:31;;;;;;;20.60;9.55;;;15.80;99.90;;;;;;5033701;28;20060;-35
2022/06/26 04:27:57;;;;;;;18.58;10.10;;;15.80;99.90;;;;;;5033329;28;20037;-33
2022/06/26 04:30:23;;;;;;;18.83;9.02;;;15.80;99.90;;;;;;5033835;28;20555;-33
2022/06/26 04:32:49;;;;;;;20.45;9.88;;;15.80;99.90;;;;;;5045811;28;20524;-48
2022/06/26 04:35:15;;;;;;;24.25;9.30;;;15.80;99.90;;;;;;5033715;28;20135;-37
2022/06/26 04:37:41;;;;;;;18.98;9.88;;;15.80;99.90;;;;;;5049884;28;20029;-36
2022/06/26 04:40:09;;;;;;;23.42;9.45;;;15.80;99.90;;;;;;5049898;28;20032;-36
2022/06/26 04:42:35;;;;;;;16.65;8.18;;;15.80;99.90;;;;;;5034993;28;20083;-37
2022/06/26 04:45:01;;;;;;;26.02;9.93;;;15.90;99.90;;;;;;5032059;28;20034;-38
2022/06/26 04:47:27;;;;;;;19.92;8.07;;;15.90;99.90;;;;;;5047252;28;20025;-37
2022/06/26 04:49:53;;;;;;;18.38;9.10;;;15.90;99.90;;;;;;5052530;28;20100;-38
2022/06/26 04:52:18;;;;;;;26.38;8.38;;;15.90;99.90;;;;;;5034458;28;20051;-38
2022/06/26 04:54:44;;;;;;;22.50;8.63;;;15.90;99.90;;;;;;5048818;28;20040;-37
2022/06/26 04:57:11;;;;;;;21.70;9.30;;;16.00;99.90;;;;;;5037617;28;20058;-38
2022/06/26 04:59:37;;;;;;;13.55;8.30;;;16.00;99.90;;;;;;5032452;28;20036;-38
2022/06/26 05:02:04;;;;;;;17.27;9.18;;;16.10;99.90;;;;;;5033733;28;20029;-38
2022/06/26 05:04:29;;;;;;;19.43;8.70;;;16.20;99.90;;;;;;5037586;28;20473;-38
2022/06/26 05:06:55;;;;;;;18.38;9.25;;;16.20;99.90;;;;;;5052294;28;20294;-38
2022/06/26 05:09:22;;;;;;;18.30;8.70;;;16.20;99.90;;;;;;5053074;28;20017;-50
2022/06/26 05:11:49;;;;;;;16.95;8.55;;;16.20;99.90;;;;;;5037686;28;20033;-34
2022/06/26 05:14:14;;;;;;;21.05;9.43;;;16.30;99.90;;;;;;5037481;28;20025;-36
2022/06/26 05:16:40;;;;;;;24.33;9.27;;;16.30;99.90;;;;;;5038619;28;20049;-37
2022/06/26 05:19:06;;;;;;;21.38;9.20;;;16.30;99.90;;;;;;5041601;28;20029;-37
2022/06/26 05:21:32;;;;;;;18.65;8.48;;;16.30;99.90;;;;;;5040729;28;20036;-36
2022/06/26 05:23:57;;;;;;;18.70;8.25;;;16.40;99.90;;;;;;5034594;28;20478;-37
2022/06/26 05:26:23;;;;;;;14.80;8.10;;;16.40;99.90;;;;;;5048632;28;20025;-37
2022/06/26 05:28:49;;;;;;;12.60;7.35;;;16.40;99.90;;;;;;5038842;28;20032;-38
2022/06/26 05:31:15;;;;;;;13.63;6.72;;;16.40;99.90;;;;;;5032307;28;20531;-38
2022/06/26 05:33:41;;;;;;;16.88;7.70;;;16.40;99.90;;;;;;5044713;28;20040;-43
2022/06/26 05:36:07;;;;;;;16.35;7.22;;;16.50;99.90;;;;;;5052199;28;20473;-33
2022/06/26 05:38:34;;;;;;;17.52;7.57;;;16.50;99.90;;;;;;5047222;28;20032;-37
2022/06/26 05:40:59;;;;;;;16.15;7.88;;;16.60;99.90;;;;;;5043754;28;20470;-36
2022/06/26 05:43:25;;;;;;;13.90;7.22;;;16.50;99.90;;;;;;5049107;28;20032;-32
2022/06/26 05:45:51;;;;;;;14.35;6.93;;;16.60;99.90;;;;;;5033862;28;20533;-33
2022/06/26 05:48:17;;;;;;;19.50;8.23;;;16.60;99.90;;;;;;5032536;28;20493;-36
2022/06/26 05:50:42;;;;;;;13.27;7.25;;;16.60;99.90;;;;;;5034941;28;20071;-35
2022/06/26 05:53:08;;;;;;;22.08;6.93;;;16.80;99.90;;;;;;5042401;28;20500;-36
2022/06/26 05:55:34;;;;;;;10.18;6.00;;;16.80;99.90;;;;;;5035494;28;20100;-32
2022/06/26 05:58:00;;;;;;;9.43;5.75;;;16.90;99.90;;;;;;5036815;28;20021;-35
2022/06/26 06:00:26;;;;;;;14.82;6.45;;;17.00;99.90;;;;;;5045367;28;20076;-35
2022/06/26 06:02:52;;;;;;;13.32;6.45;;;17.10;99.90;;;;;;5044655;28;20029;-36
2022/06/26 06:05:18;;;;;;;11.20;5.22;;;17.20;99.90;;;;;;5037877;28;20028;-34
2022/06/26 06:07:43;;;;;;;15.77;5.80;;;17.30;99.90;;;;;;5054150;28;20075;-34
2022/06/26 06:10:09;;;;;;;8.85;6.10;;;17.30;99.90;;;;;;5049623;28;20469;-33
2022/06/26 06:12:36;;;;;;;8.02;5.47;;;17.50;99.90;;;;;;5046907;28;20025;-33
2022/06/26 06:15:02;;;;;;;8.88;5.38;;;18.00;99.90;;;;;;5053321;28;20029;-41
2022/06/26 06:17:37;;;;;;;13.48;6.60;;;18.30;99.90;;;;;;5036308;28;20037;-30
2022/06/26 06:20:12;;;;;;;10.95;6.18;;;18.30;99.90;;;;;;5046613;28;20105;-38
2022/06/26 06:22:43;;;;;;;9.95;6.00;;;18.10;99.90;;;;;;5046981;28;20045;-30
2022/06/26 06:25:10;;;;;;;10.68;5.85;;;18.20;99.90;;;;;;5039568;28;20017;-36
2022/06/26 06:27:36;;;;;;;7.57;4.43;;;18.70;99.90;;;;;;5054632;28;20457;-32
2022/06/26 06:30:04;;;;;;;11.68;5.88;;;19.80;99.90;;;;;;5054174;28;20066;-31
2022/06/26 06:32:30;;;;;;;10.57;5.57;;;21.70;99.90;;;;;;5050605;28;20575;-32
2022/06/26 06:34:55;;;;;;;5.93;3.70;;;24.10;99.90;;;;;;5039914;28;20060;-47
2022/06/26 06:37:21;;;;;;;8.38;3.92;;;25.20;99.90;;;;;;5061840;28;20033;-37
2022/06/26 06:39:47;;;;;;;4.75;4.05;;;24.80;99.90;;;;;;5055460;28;20017;-37
2022/06/26 06:42:12;;;;;;;7.15;3.83;;;24.40;99.90;;;;;;5050348;28;20017;-38
2022/06/26 06:44:38;;;;;;;6.90;3.55;;;24.10;99.90;;;;;;5036190;28;20083;-38
2022/06/26 06:47:05;;;;;;;5.55;3.78;;;23.50;99.90;;;;;;5055746;28;20068;-37
2022/06/26 06:49:30;;;;;;;7.07;3.45;;;22.60;99.90;;;;;;5037522;28;20032;-38
2022/06/26 06:51:56;;;;;;;6.63;3.85;;;21.70;99.90;;;;;;5046552;28;20481;-35
2022/06/26 06:54:22;;;;;;;3.63;3.13;;;20.80;99.90;;;;;;5051335;28;20389;-37
2022/06/26 06:56:48;;;;;;;4.68;3.22;;;20.40;99.90;;;;;;5042418;28;20021;-37
2022/06/26 06:59:14;;;;;;;5.22;3.00;;;19.90;99.90;;;;;;5038758;28;20488;-38
2022/06/26 07:01:39;;;;;;;9.93;3.63;;;19.80;99.90;;;;;;5037912;28;20390;-38
2022/06/26 07:04:07;;;;;;;5.68;3.25;;;19.90;99.90;;;;;;5040286;28;20029;-45
2022/06/26 07:06:32;;;;;;;3.97;2.95;;;20.30;99.90;;;;;;5034362;28;20466;-42
2022/06/26 07:08:58;;;;;;;6.55;3.05;;;20.50;99.90;;;;;;5035120;28;20033;-36
2022/06/26 07:11:23;;;;;;;6.05;3.00;;;20.60;99.90;;;;;;5053269;28;20525;-38
2022/06/26 07:13:49;;;;;;;3.60;2.67;;;20.70;99.90;;;;;;5054658;28;20032;-32
2022/06/26 07:16:15;;;;;;;2.58;2.00;;;20.80;99.90;;;;;;5039619;28;20035;-36
2022/06/26 07:18:40;;;;;;;5.45;2.80;;;21.00;99.90;;;;;;5039542;28;20022;-35
2022/06/26 07:21:07;;;;;;;5.60;2.90;;;21.10;99.90;;;;;;5048133;28;20029;-31
2022/06/26 07:23:33;;;;;;;3.80;2.30;;;21.40;99.90;;;;;;5034655;28;20051;-32
2022/06/26 07:25:59;;;;;;;9.43;1.98;;;21.80;99.90;;;;;;5038420;28;20069;-35
2022/06/26 07:28:25;;;;;;;4.78;2.30;;;21.70;99.90;;;;;;5043932;28;20106;-33
2022/06/26 07:30:52;;;;;;;4.57;2.05;;;21.30;99.90;;;;;;5054739;28;20504;-34
2022/06/26 07:36:03;;;;;;;4.75;2.25;;;20.70;99.90;;;;;;5050078;28;20040;-34
2022/06/26 07:38:29;;;;;;;4.45;2.05;;;20.30;99.90;;;;;;5052806;28;20025;-33
2022/06/26 07:40:55;;;;;;;4.53;2.05;;;20.00;99.90;;;;;;5044330;28;20027;-38
2022/06/26 07:43:20;;;;;;;4.05;2.20;;;19.90;99.90;;;;;;5037657;28;20519;-37
2022/06/26 07:45:46;;;;;;;3.05;2.20;;;19.60;99.90;;;;;;5041629;28;20032;-37
2022/06/26 07:48:12;;;;;;;3.20;2.10;;;19.50;99.90;;;;;;5043541;28;20025;-39
2022/06/26 07:50:37;;;;;;;5.18;2.00;;;19.40;99.90;;;;;;5054249;28;20413;-38
2022/06/26 07:53:03;;;;;;;5.22;2.38;;;19.30;99.90;;;;;;5041099;28;20029;-39
2022/06/26 07:55:29;;;;;;;4.65;2.05;;;19.20;99.90;;;;;;5033730;28;20017;-39
2022/06/26 07:57:54;;;;;;;2.17;1.80;;;19.10;99.90;;;;;;5041738;28;20025;-34
2022/06/26 08:00:20;;;;;;;2.15;1.92;;;19.10;99.90;;;;;;5039907;28;20025;-37
2022/06/26 08:02:46;;;;;;;7.10;2.00;;;19.00;99.90;;;;;;5036942;28;20393;-39
2022/06/26 08:05:12;;;;;;;2.55;1.65;;;18.90;99.90;;;;;;5050060;28;20025;-41
2022/06/26 08:07:38;;;;;;;4.03;1.83;;;18.90;99.90;;;;;;5034348;28;20029;-39
2022/06/26 08:10:04;;;;;;;3.22;1.58;;;18.80;99.90;;;;;;5039790;28;20025;-37
2022/06/26 08:12:30;;;;;;;3.60;1.85;;;18.80;99.90;;;;;;5040448;28;20033;-40
2022/06/26 08:14:55;;;;;;;3.65;1.83;;;18.80;99.90;;;;;;5032167;28;20037;-37
2022/06/26 08:17:21;;;;;;;3.88;1.80;;;18.80;99.90;;;;;;5030445;28;20049;-37
2022/06/26 08:19:47;;;;;;;3.03;2.15;;;18.80;99.90;;;;;;5047782;28;20025;-38
2022/06/26 08:22:13;;;;;;;3.15;2.10;;;18.90;99.90;;;;;;5051060;28;20028;-38
2022/06/26 08:24:41;;;;;;;4.82;2.10;;;18.90;99.90;;;;;;5035827;28;20477;-39
2022/06/26 08:27:07;;;;;;;5.57;2.28;;;18.90;99.90;;;;;;5033557;28;20519;-39
2022/06/26 08:29:33;;;;;;;2.30;2.10;;;18.90;99.90;;;;;;5036069;28;20492;-35
2022/06/26 08:31:59;;;;;;;3.60;2.42;;;18.90;99.90;;;;;;5050043;28;20049;-39
2022/06/26 08:34:24;;;;;;;2.10;1.90;;;18.90;99.90;;;;;;5034423;28;20029;-36
2022/06/26 08:36:51;;;;;;;2.13;1.92;;;18.90;99.90;;;;;;5038193;28;20450;-34
2022/06/26 08:39:16;;;;;;;3.53;2.35;;;18.90;99.90;;;;;;5050645;28;20051;-48
2022/06/26 08:41:45;;;;;;;7.20;2.15;;;18.90;99.90;;;;;;5048069;28;20599;-39
2022/06/26 08:44:11;;;;;;;5.18;1.92;;;19.00;99.90;;;;;;5032823;28;20068;-37
2022/06/26 08:46:39;;;;;;;4.45;2.05;;;19.10;99.90;;;;;;5041761;28;20017;-40
2022/06/26 08:49:10;;;;;;;4.55;2.40;;;19.10;99.90;;;;;;5033104;28;20036;-39
2022/06/26 08:51:41;;;;;;;3.40;1.83;;;19.20;99.90;;;;;;5035526;28;20032;-39
2022/06/26 08:54:09;;;;;;;2.38;1.58;;;19.30;99.90;;;;;;5035551;28;20515;-39
2022/06/26 08:56:39;;;;;;;1.95;1.67;;;19.30;99.90;;;;;;5032193;28;20503;-34
2022/06/26 08:59:05;;;;;;;7.25;2.13;;;19.50;99.90;;;;;;5034675;28;20025;-37
2022/06/26 09:01:31;;;;;;;1.83;1.67;;;19.60;99.90;;;;;;5034162;28;20099;-39
2022/06/26 09:03:56;;;;;;;3.28;1.88;;;19.60;99.90;;;;;;5041657;28;20063;-39
2022/06/26 09:06:22;;;;;;;3.97;1.70;;;19.70;99.90;;;;;;5038391;28;20028;-39
2022/06/26 09:08:50;;;;;;;2.63;1.60;;;19.80;99.90;;;;;;5045072;28;20114;-37
2022/06/26 09:11:19;;;;;;;3.67;1.70;;;19.80;99.90;;;;;;5033071;28;20509;-37
2022/06/26 09:13:46;;;;;;;5.50;2.65;;;19.70;99.90;;;;;;5039516;28;20041;-39
2022/06/26 09:16:13;;;;;;;5.00;2.53;;;19.70;99.90;;;;;;5040583;28;20033;-39
2022/06/26 09:18:42;;;;;;;5.05;1.52;;;19.70;99.90;;;;;;5052906;28;20017;-39
2022/06/26 09:21:09;;;;;;;3.00;1.45;;;19.60;99.90;;;;;;5047870;28;20018;-38
2022/06/26 09:23:37;;;;;;;3.67;1.67;;;19.60;99.90;;;;;;5039508;28;20036;-39
2022/06/26 09:26:03;;;;;;;;;;;19.60;99.90;;;;;;5034842;28;20022;-41
2022/06/26 09:28:29;;;;;;;5.97;1.60;;;19.60;99.90;;;;;;5035013;28;19909;-38
2022/06/26 09:31:03;;;;;;;5.07;1.63;;;19.80;99.90;;;;;;5035462;28;20087;-39
2022/06/26 09:33:34;;;;;;;3.80;1.80;;;19.80;99.90;;;;;;5045043;28;20132;-37
2022/06/26 09:36:02;;;;;;;2.13;1.80;;;19.90;99.90;;;;;;5040721;28;20035;-38
2022/06/26 09:38:30;;;;;;;7.28;1.70;;;20.00;99.90;;;;;;5039728;28;20083;-39
2022/06/26 09:40:58;;;;;;;2.08;1.73;;;20.00;99.90;;;;;;5053177;28;20361;-39
2022/06/26 09:43:29;;;;;;;4.18;2.53;;;20.10;99.90;;;;;;5055922;28;20481;-39
2022/06/26 09:45:56;;;;;;;1.73;1.30;;;20.10;99.90;;;;;;5056873;28;20469;-38
2022/06/26 09:48:24;;;;;;;3.15;1.70;;;20.10;99.90;;;;;;5073380;28;20086;-38
2022/06/26 09:50:50;;;;;;;2.90;1.60;;;20.20;99.90;;;;;;5041676;28;20064;-34
2022/06/26 09:53:17;;;;;;;7.43;1.63;;;20.20;99.90;;;;;;5043432;28;20540;-37
2022/06/26 09:55:43;;;;;;;1.75;1.20;;;20.30;99.90;;;;;;5055329;28;20100;-33
2022/06/26 09:58:09;;;;;;;4.50;1.23;;;20.40;99.90;;;;;;5056398;28;20446;-32
2022/06/26 10:00:35;;;;;;;1.50;1.40;;;20.40;99.90;;;;;;5037267;28;20032;-35
2022/06/26 10:08:34;;;;;;;2.78;1.35;;;20.60;99.90;;;;;;5036549;28;20513;-37
2022/06/26 10:11:01;;;;;;;2.00;1.80;;;20.60;99.90;;;;;;5052877;28;20059;-39
2022/06/26 10:13:29;;;;;;;2.53;1.40;;;20.70;99.90;;;;;;5051211;28;20485;-37
2022/06/26 10:16:25;;;;;;;2.65;1.58;;;20.60;99.90;;;;;;5055557;28;20381;-39
2022/06/26 10:19:19;;;;;;;2.78;1.63;;;20.70;99.90;;;;;;5056197;28;20053;-37
2022/06/26 10:21:46;;;;;;;1.98;1.80;;;20.70;99.90;;;;;;5054992;28;20507;-39
2022/06/26 10:24:12;;;;;;;5.13;1.75;;;20.70;99.90;;;;;;5043271;28;20035;-38
2022/06/26 10:26:38;;;;;;;1.48;1.38;;;20.80;99.90;;;;;;5035893;28;20396;-40
2022/06/26 10:29:11;;;;;;;1.92;1.70;;;20.90;99.90;;;;;;5034294;28;20032;-37
2022/06/26 10:31:47;;;;;;;4.55;1.80;;;21.00;99.90;;;;;;5035851;28;20065;-38
2022/06/26 10:34:23;;;;;;;4.03;1.40;;;21.30;99.90;;;;;;5035926;28;20028;-38
2022/06/26 10:37:10;;;;;;;2.05;1.80;;;21.60;99.90;;;;;;5038247;28;20033;-36
2022/06/26 10:39:39;;;;;;;6.63;2.43;;;21.90;99.90;;;;;;5036007;28;20052;-39
2022/06/26 10:45:06;;;;;;;1.30;1.00;;;22.50;99.90;;;;;;5055790;28;20052;-38
2022/06/26 10:47:50;;;;;;;1.33;1.10;;;22.70;99.90;;;;;;5055573;28;20025;-38
2022/06/26 10:50:34;;;;;;;1.63;1.27;;;22.70;99.90;;;;;;5046114;28;20063;-38
2022/06/26 10:53:23;;;;;;;1.83;1.35;;;23.00;99.90;;;;;;5035581;28;20033;-38
2022/06/26 10:56:08;;;;;;;5.10;2.20;;;23.20;99.90;;;;;;5050244;28;20541;-39
2022/06/26 10:58:38;;;;;;;2.35;1.42;;;23.30;99.90;;;;;;5055648;28;20102;-39
2022/06/26 11:01:05;;;;;;;2.63;1.38;;;23.30;99.90;;;;;;5053990;28;20056;-38
2022/06/26 11:03:32;;;;;;;2.67;1.35;;;23.20;99.90;;;;;;5048050;28;20485;-38
2022/06/26 11:05:58;;;;;;;1.70;1.60;;;23.10;99.90;;;;;;5042195;28;20444;-39
2022/06/26 11:08:37;;;;;;;3.08;1.45;;;22.90;99.90;;;;;;5037021;28;20500;-37
2022/06/26 11:11:09;;;;;;;2.92;1.33;;;22.80;99.90;;;;;;5036128;28;20032;-38
2022/06/26 11:13:46;;;;;;;6.95;1.00;;;22.80;99.90;;;;;;5046887;28;20040;-38
2022/06/26 11:16:11;;;;;;;2.58;1.63;;;22.70;99.90;;;;;;5038464;28;20378;-39
2022/06/26 11:18:37;;;;;;;3.22;1.67;;;22.70;99.90;;;;;;5033709;28;20021;-33
2022/06/26 11:21:04;;;;;;;2.30;1.10;;;22.70;99.90;;;;;;5043902;28;20075;-38
2022/06/26 11:23:33;;;;;;;3.38;2.03;;;22.70;99.90;;;;;;5039055;28;20077;-37
2022/06/26 11:26:00;;;;;;;1.63;1.38;;;22.80;99.90;;;;;;5030833;28;20036;-36
2022/06/26 11:28:28;;;;;;;;;;;22.90;99.90;;;;;;5048267;28;20489;-38
2022/06/26 11:30:53;;;;;;;5.45;2.30;;;23.00;99.90;;;;;;5034847;28;20368;-40
2022/06/26 11:33:24;;;;;;;2.53;2.33;;;22.90;99.90;;;;;;5051588;28;20036;-38
2022/06/26 11:35:50;;;;;;;1.77;1.50;;;23.00;99.90;;;;;;5053649;28;20484;-39
2022/06/26 11:38:16;;;;;;;3.35;2.10;;;23.00;99.90;;;;;;5037250;28;20032;-40
2022/06/26 11:40:44;;;;;;;2.90;1.90;;;23.00;99.90;;;;;;5031785;28;20500;-33
2022/06/26 11:43:11;;;;;;;6.13;2.05;;;22.80;99.90;;;;;;5031508;28;20619;-39
2022/06/26 11:45:39;;;;;;;6.10;2.58;;;22.80;99.90;;;;;;5031646;28;20112;-37
2022/06/26 11:48:08;;;;;;;5.38;2.13;;;22.70;99.90;;;;;;5044366;28;20025;-36
2022/06/26 11:50:36;;;;;;;3.20;2.08;;;22.60;99.90;;;;;;5030186;28;20507;-37
2022/06/26 11:53:04;;;;;;;7.32;2.90;;;22.30;99.90;;;;;;5030203;28;20481;-38
2022/06/26 11:55:31;;;;;;;2.75;2.42;;;22.20;99.90;;;;;;5031405;28;20017;-39
2022/06/26 11:57:57;;;;;;;3.90;1.90;;;22.20;99.90;;;;;;5031377;28;20030;-37
2022/06/26 12:00:24;;;;;;;4.20;2.05;;;22.20;99.90;;;;;;5031832;28;20024;-36
2022/06/26 12:02:50;;;;;;;3.53;2.50;;;22.20;99.90;;;;;;5034446;28;20049;-36
2022/06/26 12:05:25;;;;;;;4.07;2.60;;;22.30;99.90;;;;;;5032752;28;20397;-52
2022/06/26 12:07:52;;;;;;;5.05;3.20;;;22.20;99.90;;;;;;5029083;28;20044;-38
2022/06/26 12:10:32;;;;;;;4.25;2.75;;;22.10;99.90;;;;;;5028428;28;20099;-51
2022/06/26 12:13:06;;;;;;;6.95;2.90;;;22.00;99.90;;;;;;5072379;28;20452;-38
2022/06/26 12:15:34;;;;;;;3.47;3.05;;;22.00;99.90;;;;;;5070173;28;20021;-37
2022/06/26 12:18:06;;;;;;;3.45;2.80;;;22.00;99.90;;;;;;5066825;28;20032;-47
2022/06/26 12:20:39;;;;;;;3.05;2.15;;;22.30;99.90;;;;;;5074249;28;20500;-58
2022/06/26 12:23:06;;;;;;;6.07;2.33;;;22.80;99.90;;;;;;5081083;28;20484;-50
2022/06/26 12:25:37;;;;;;;7.00;2.00;;;23.10;99.90;;;;;;5079699;28;20082;-36
2022/06/26 12:28:03;;;;;;;3.08;2.75;;;23.10;99.90;;;;;;5071274;28;20028;-37
2022/06/26 12:30:34;;;;;;;5.60;2.08;;;23.00;99.90;;;;;;5072589;28;20078;-38
2022/06/26 12:33:04;;;;;;;4.47;1.90;;;23.10;99.90;;;;;;5070788;28;20032;-36
2022/06/26 12:35:30;;;;;;;5.63;2.13;;;22.90;99.90;;;;;;5071935;28;20469;-37
2022/06/26 12:37:55;;;;;;;2.88;2.53;;;22.90;99.90;;;;;;5063705;28;20785;-38
2022/06/26 12:40:22;;;;;;;2.88;1.63;;;22.80;99.90;;;;;;5071440;28;20029;-59
2022/06/26 12:42:47;;;;;;;3.80;1.75;;;22.70;99.90;;;;;;5073584;28;20047;-36
2022/06/26 12:45:13;;;;;;;2.85;1.60;;;22.60;99.90;;;;;;5074433;28;20389;-36
2022/06/26 12:47:40;;;;;;;3.30;1.63;;;22.40;99.90;;;;;;5067523;28;20024;-36
2022/06/26 12:50:06;;;;;;;2.33;2.05;;;22.30;99.90;;;;;;5072460;28;20123;-49
2022/06/26 12:52:32;;;;;;;3.00;2.08;;;22.30;99.90;;;;;;5064110;28;20029;-37
2022/06/26 12:55:00;;;;;;;5.10;1.98;;;22.20;99.90;;;;;;5059310;28;20032;-36
2022/06/26 12:57:26;;;;;;;2.47;2.05;;;22.10;99.90;;;;;;5064889;28;20689;-36